Time;durP1;ratioP1;P1;durP2;ratioP2;P2;SDS_P1;SDS_P2;PMS_P1;PMS_P2;Temp;Humidity;BMP_temperature;BMP_pressure;BME280_temperature;BME280_humidity;BME280_pressure;Samples;Min_cycle;Max_cycle;Signal;HPM_P1;HPM_P2
2023/07/18 08:23:03;;;;;;;10.90;2.10;;;;;;;;;;6215510;23;20437;-73
2023/07/18 08:28:29;;;;;;;6.23;1.80;;;;;;;;;;6155386;23;20473;-73
2023/07/18 08:34:17;;;;;;;6.87;1.93;;;;;;;;;;6152958;23;20466;-76
2023/07/18 08:43:04;;;;;;;11.93;2.10;;;;;;;;;;6152538;23;20444;-76
2023/07/18 08:45:53;;;;;;;;;;;;;;;;;;;;;
2023/07/18 08:49:14;;;;;;;;;;;;;;;;;;;;;
2023/07/18 09:16:33;;;;;;;;;;;;;;;;;;;;;
2023/07/18 09:19:15;;;;;;;3.60;1.37;;;;;;;;;;6215697;23;20462;-75
2023/07/18 09:28:48;;;;;;;6.67;1.40;;;;;;;;;;6211666;23;20419;-74
2023/07/18 09:31:36;;;;;;;5.33;2.77;;;;;;;;;;6220501;23;20422;-75
2023/07/18 09:37:09;;;;;;;4.80;1.20;;;;;;;;;;6207952;23;20492;-77
2023/07/18 09:40:18;;;;;;;3.53;1.80;;;;;;;;;;6212132;23;20430;-75
2023/07/18 10:11:30;;;;;;;3.27;1.03;;;;;;;;;;6220127;23;21011;-76
2023/07/18 10:47:18;;;;;;;;;;;;;;;;;;;;;
2023/07/18 10:56:02;;;;;;;4.63;1.27;;;;;;;;;;6211765;23;20503;-78
2023/07/18 10:58:48;;;;;;;3.40;1.00;;;;;;;;;;6250925;23;20425;-75
2023/07/18 11:04:20;;;;;;;3.30;1.07;;;;;;;;;;6239487;23;20524;-74
2023/07/18 11:07:04;;;;;;;2.40;0.80;;;;;;;;;;6249715;23;20464;-75
2023/07/18 11:09:47;;;;;;;2.97;1.13;;;;;;;;;;6247849;23;20398;-74
2023/07/18 11:18:38;;;;;;;3.90;0.80;;;;;;;;;;6037225;23;20451;-74
2023/07/18 13:36:46;;;;;;;3.47;0.90;;;;;;;;;;6180584;23;20491;-75
2023/07/18 13:39:23;;;;;;;2.60;1.33;;;;;;;;;;6183650;23;20442;-75
2023/07/18 14:48:43;;;;;;;2.70;1.00;;;;;;;;;;6215091;23;20472;-77
2023/07/18 14:51:11;;;;;;;2.80;0.93;;;;;;;;;;6214047;23;20402;-79
2023/07/18 14:53:38;;;;;;;5.33;1.57;;;;;;;;;;6212812;23;20441;-77
2023/07/18 14:56:06;;;;;;;3.00;1.00;;;;;;;;;;6216579;23;20608;-80
2023/07/18 14:58:37;;;;;;;5.77;2.10;;;;;;;;;;6218843;23;20425;-78
2023/07/18 15:01:06;;;;;;;3.07;1.30;;;;;;;;;;6222886;23;20386;-79
2023/07/18 15:03:34;;;;;;;6.00;1.33;;;;;;;;;;6222258;23;20481;-79
2023/07/18 15:06:09;;;;;;;3.37;1.00;;;;;;;;;;6217606;23;20418;-78
2023/07/18 15:08:38;;;;;;;3.00;0.90;;;;;;;;;;6223289;23;20874;-79
2023/07/18 15:11:12;;;;;;;3.07;1.30;;;;;;;;;;6223867;23;20421;-79
2023/07/18 15:13:44;;;;;;;2.67;1.40;;;;;;;;;;6223670;23;20482;-80
2023/07/18 15:16:12;;;;;;;3.93;1.40;;;;;;;;;;6225582;23;20449;-79
2023/07/18 15:18:41;;;;;;;6.77;1.37;;;;;;;;;;6230568;23;20406;-78
2023/07/18 15:21:11;;;;;;;3.20;1.60;;;;;;;;;;6226614;23;20513;-77
2023/07/18 15:23:42;;;;;;;5.07;1.20;;;;;;;;;;6222160;23;20464;-76
2023/07/18 15:26:13;;;;;;;3.40;1.20;;;;;;;;;;6226300;23;20669;-78
2023/07/18 15:28:42;;;;;;;2.50;1.27;;;;;;;;;;6223911;23;20483;-79
2023/07/18 15:31:20;;;;;;;4.40;2.13;;;;;;;;;;6220177;23;20422;-79
2023/07/18 15:33:48;;;;;;;2.83;1.13;;;;;;;;;;6224414;23;20755;-77
2023/07/18 15:36:45;;;;;;;2.43;1.23;;;;;;;;;;6219569;23;20418;-78
2023/07/18 15:39:26;;;;;;;2.87;1.23;;;;;;;;;;6225859;23;20418;-77
2023/07/18 15:42:02;;;;;;;4.00;1.30;;;;;;;;;;6219128;23;20402;-79
2023/07/18 15:44:30;;;;;;;2.80;1.23;;;;;;;;;;6221592;23;20445;-78
2023/07/18 15:46:59;;;;;;;2.40;1.10;;;;;;;;;;6220790;23;20434;-78
2023/07/18 15:49:27;;;;;;;3.90;1.27;;;;;;;;;;6223330;23;20453;-80
2023/07/18 15:52:05;;;;;;;2.93;1.03;;;;;;;;;;6220036;23;20410;-79
2023/07/18 15:54:33;;;;;;;2.40;1.10;;;;;;;;;;6220949;23;20438;-79
2023/07/18 15:57:02;;;;;;;3.13;1.20;;;;;;;;;;6219698;23;20418;-78
2023/07/18 15:59:30;;;;;;;3.03;1.30;;;;;;;;;;6221613;23;20406;-78
2023/07/18 16:01:59;;;;;;;4.37;1.80;;;;;;;;;;6221532;23;20739;-77
2023/07/18 16:04:28;;;;;;;3.13;0.87;;;;;;;;;;6221304;23;20442;-79
2023/07/18 16:06:56;;;;;;;2.50;1.13;;;;;;;;;;6223119;23;20434;-79
2023/07/18 16:09:28;;;;;;;3.43;1.00;;;;;;;;;;6223885;23;20454;-78
2023/07/18 16:11:59;;;;;;;2.93;1.30;;;;;;;;;;6226385;23;20489;-79
2023/07/18 16:14:27;;;;;;;5.33;1.00;;;;;;;;;;6218929;23;20414;-79
2023/07/18 16:16:55;;;;;;;3.80;1.03;;;;;;;;;;6219280;23;20391;-78
2023/07/18 16:19:24;;;;;;;2.20;1.00;;;;;;;;;;6223344;23;20430;-79
2023/07/18 16:21:52;;;;;;;3.23;1.20;;;;;;;;;;6227111;23;20432;-81
2023/07/18 16:24:25;;;;;;;5.40;1.50;;;;;;;;;;6226747;23;20445;-79
2023/07/18 16:26:58;;;;;;;6.17;1.20;;;;;;;;;;6222874;23;20394;-79
2023/07/18 16:29:30;;;;;;;2.17;1.10;;;;;;;;;;6223133;23;20421;-78
2023/07/18 16:31:57;;;;;;;4.20;0.87;;;;;;;;;;6227444;23;20411;-80
2023/07/18 16:46:38;;;;;;;2.53;1.37;;;;;;;;;;6192543;23;20494;-78
2023/07/18 16:49:30;;;;;;;3.93;1.03;;;;;;;;;;6234302;23;20402;-78
2023/07/18 16:52:21;;;;;;;5.50;2.70;;;;;;;;;;6233914;23;20446;-77
2023/07/18 16:54:54;;;;;;;2.80;1.57;;;;;;;;;;6233484;23;20504;-79
2023/07/18 16:57:31;;;;;;;2.83;1.30;;;;;;;;;;6233645;23;21055;-77
2023/07/18 16:59:59;;;;;;;3.23;1.20;;;;;;;;;;6221784;23;20481;-80
2023/07/18 17:02:41;;;;;;;3.77;1.10;;;;;;;;;;6229550;23;20409;-79
2023/07/18 17:05:19;;;;;;;3.23;1.10;;;;;;;;;;6234488;23;20477;-79
2023/07/18 17:07:53;;;;;;;3.53;0.93;;;;;;;;;;6232449;23;20394;-79
2023/07/18 17:10:31;;;;;;;5.57;2.20;;;;;;;;;;6202080;23;20432;-79
2023/07/18 17:13:50;;;;;;;2.53;1.10;;;;;;;;;;6230086;23;20424;-79
2023/07/18 17:16:29;;;;;;;2.53;1.20;;;;;;;;;;6228405;23;20414;-79
2023/07/18 17:19:17;;;;;;;2.50;0.77;;;;;;;;;;6222732;23;20512;-76
2023/07/18 17:25:03;;;;;;;2.83;1.17;;;;;;;;;;6229490;23;20507;-78
2023/07/18 17:27:35;;;;;;;4.23;1.20;;;;;;;;;;6228765;23;20402;-77
2023/07/18 17:30:15;;;;;;;2.90;1.27;;;;;;;;;;6225890;23;20441;-79
2023/07/18 17:35:57;;;;;;;4.03;1.40;;;;;;;;;;6227251;23;20373;-79
2023/07/18 17:38:28;;;;;;;2.80;1.30;;;;;;;;;;6229902;23;20418;-80
2023/07/18 17:40:57;;;;;;;4.53;1.33;;;;;;;;;;6229616;23;20420;-78
2023/07/18 17:43:25;;;;;;;3.60;1.20;;;;;;;;;;6226596;23;20442;-82
2023/07/18 17:45:53;;;;;;;3.60;1.40;;;;;;;;;;6225722;23;20468;-80
2023/07/18 17:48:26;;;;;;;4.90;1.20;;;;;;;;;;6227390;23;20390;-78
2023/07/18 17:50:56;;;;;;;2.93;1.00;;;;;;;;;;6226195;23;20623;-78
2023/07/18 17:53:51;;;;;;;2.50;0.90;;;;;;;;;;6231871;23;20846;-81
2023/07/18 17:56:26;;;;;;;2.73;0.90;;;;;;;;;;6224832;23;20421;-77
2023/07/18 17:58:57;;;;;;;6.43;1.70;;;;;;;;;;6226170;23;20448;-80
2023/07/18 18:01:25;;;;;;;3.03;1.20;;;;;;;;;;6231202;23;20417;-78
2023/07/18 18:03:53;;;;;;;4.17;1.40;;;;;;;;;;6230733;23;20513;-80
2023/07/18 18:06:21;;;;;;;6.90;1.30;;;;;;;;;;6227733;23;20414;-80
2023/07/18 18:08:50;;;;;;;3.27;1.10;;;;;;;;;;6228290;23;20420;-78
2023/07/18 18:11:18;;;;;;;6.90;1.20;;;;;;;;;;6224015;23;20410;-78
2023/07/18 18:13:47;;;;;;;3.57;1.33;;;;;;;;;;6225353;23;20430;-79
2023/07/18 18:16:17;;;;;;;3.77;1.27;;;;;;;;;;6226974;23;20421;-77
2023/07/18 18:18:46;;;;;;;2.47;1.00;;;;;;;;;;6229774;23;20443;-78
2023/07/18 18:21:15;;;;;;;2.63;1.20;;;;;;;;;;6228259;23;20440;-82
2023/07/18 18:23:43;;;;;;;3.10;1.40;;;;;;;;;;6225510;23;20414;-77
2023/07/18 18:26:11;;;;;;;3.50;1.40;;;;;;;;;;6225255;23;20490;-82
2023/07/18 18:28:39;;;;;;;2.50;1.13;;;;;;;;;;6225229;23;20493;-79
2023/07/18 18:31:08;;;;;;;6.20;1.87;;;;;;;;;;6225942;23;20402;-79
2023/07/18 18:33:39;;;;;;;2.73;1.30;;;;;;;;;;6226335;23;20674;-81
2023/07/18 18:36:07;;;;;;;3.63;1.60;;;;;;;;;;6228049;23;20481;-80
2023/07/18 18:38:37;;;;;;;2.27;1.17;;;;;;;;;;6227124;23;20402;-78
2023/07/18 18:41:05;;;;;;;2.47;1.00;;;;;;;;;;6228717;23;20971;-80
2023/07/18 18:43:33;;;;;;;5.70;1.40;;;;;;;;;;6229686;23;20410;-81
2023/07/18 18:46:01;;;;;;;4.40;2.93;;;;;;;;;;6231115;23;20875;-80
2023/07/18 18:48:30;;;;;;;7.00;3.60;;;;;;;;;;6228236;23;20454;-81
2023/07/18 18:50:59;;;;;;;4.30;1.23;;;;;;;;;;6226227;23;20432;-81
2023/07/18 18:53:31;;;;;;;5.10;1.27;;;;;;;;;;6226890;23;20760;-81
2023/07/18 18:55:59;;;;;;;5.60;1.40;;;;;;;;;;6225377;23;20460;-78
2023/07/18 18:58:27;;;;;;;2.97;1.10;;;;;;;;;;6224710;23;20911;-79
2023/07/18 19:00:55;;;;;;;3.23;1.20;;;;;;;;;;6223811;23;20396;-78
2023/07/18 19:03:27;;;;;;;5.00;1.53;;;;;;;;;;6223792;23;20693;-81
2023/07/18 19:05:57;;;;;;;2.50;1.10;;;;;;;;;;6226849;23;20445;-79
2023/07/18 19:08:27;;;;;;;2.47;1.17;;;;;;;;;;6228204;23;20414;-81
2023/07/18 19:10:54;;;;;;;2.73;1.10;;;;;;;;;;6229269;23;20450;-80
2023/07/18 19:13:23;;;;;;;2.90;1.13;;;;;;;;;;6228209;23;20391;-81
2023/07/18 19:15:51;;;;;;;5.20;1.30;;;;;;;;;;6227392;23;20398;-82
2023/07/18 19:18:22;;;;;;;2.67;1.00;;;;;;;;;;6227928;23;20449;-82
2023/07/18 19:20:49;;;;;;;3.20;1.50;;;;;;;;;;6224552;23;20425;-80
2023/07/18 19:23:18;;;;;;;6.27;1.77;;;;;;;;;;6226219;23;20409;-78
2023/07/18 19:25:46;;;;;;;4.80;1.30;;;;;;;;;;6225243;23;20449;-79
2023/07/18 19:28:17;;;;;;;3.13;1.03;;;;;;;;;;6223796;23;20397;-80
2023/07/18 19:30:46;;;;;;;2.70;1.37;;;;;;;;;;6229760;23;20419;-81
2023/07/18 19:33:13;;;;;;;5.90;1.50;;;;;;;;;;6229526;23;20425;-81
2023/07/18 19:35:41;;;;;;;9.33;1.33;;;;;;;;;;6228683;23;20429;-81
2023/07/18 19:38:09;;;;;;;4.00;1.50;;;;;;;;;;6228542;23;20410;-82
2023/07/18 19:40:40;;;;;;;4.63;1.53;;;;;;;;;;6230201;23;20436;-80
2023/07/18 19:43:08;;;;;;;5.23;1.37;;;;;;;;;;6232757;23;20816;-84
2023/07/18 19:45:40;;;;;;;4.07;1.53;;;;;;;;;;6231786;23;20520;-81
2023/07/18 19:48:08;;;;;;;3.70;1.80;;;;;;;;;;6230686;23;20472;-81
2023/07/18 19:50:39;;;;;;;5.50;2.10;;;;;;;;;;6228235;23;20400;-80
2023/07/18 19:53:07;;;;;;;5.90;2.97;;;;;;;;;;6230487;23;20796;-81
2023/07/18 19:55:34;;;;;;;3.83;1.60;;;;;;;;;;6230226;23;20425;-79
2023/07/18 19:58:06;;;;;;;3.83;2.00;;;;;;;;;;6226151;23;20413;-78
2023/07/18 20:00:37;;;;;;;3.93;1.60;;;;;;;;;;6224457;23;20414;-81
2023/07/18 20:03:06;;;;;;;4.63;2.10;;;;;;;;;;6228757;23;20438;-81
2023/07/18 20:08:10;;;;;;;3.47;1.30;;;;;;;;;;6201942;23;20473;-74
2023/07/18 20:10:45;;;;;;;3.13;1.40;;;;;;;;;;6217951;23;20469;-73
2023/07/18 20:16:05;;;;;;;5.30;1.37;;;;;;;;;;6214083;23;20425;-73
2023/07/18 20:18:42;;;;;;;3.70;1.63;;;;;;;;;;6216960;23;20407;-74
2023/07/18 20:21:15;;;;;;;3.67;1.50;;;;;;;;;;6215690;23;20445;-74
2023/07/18 20:23:56;;;;;;;3.80;1.60;;;;;;;;;;6214226;23;20429;-75
2023/07/18 20:26:34;;;;;;;6.20;1.97;;;;;;;;;;6217292;23;20503;-73
2023/07/18 20:32:02;;;;;;;4.73;1.87;;;;;;;;;;6210094;23;21070;-74
2023/07/18 20:40:19;;;;;;;3.50;1.70;;;;;;;;;;6199801;23;20413;-76
2023/07/18 20:42:52;;;;;;;3.97;1.77;;;;;;;;;;6215404;23;20910;-74
2023/07/18 20:45:33;;;;;;;5.20;2.30;;;;;;;;;;6215962;23;20450;-73
2023/07/18 20:48:05;;;;;;;5.27;1.50;;;;;;;;;;6218235;23;20520;-74
2023/07/18 20:50:41;;;;;;;4.57;1.43;;;;;;;;;;6217189;23;20442;-75
2023/07/18 20:59:06;;;;;;;4.27;1.80;;;;;;;;;;6201631;23;20422;-74
2023/07/18 21:02:13;;;;;;;;;;;;;;;;;;;;;
2023/07/18 21:04:50;;;;;;;4.60;1.70;;;;;;;;;;6220137;23;20448;-74
2023/07/18 21:07:34;;;;;;;6.20;2.13;;;;;;;;;;6221835;23;20433;-74
2023/07/18 21:10:18;;;;;;;6.00;2.93;;;;;;;;;;6222512;23;20482;-75
2023/07/18 21:15:44;;;;;;;4.77;2.00;;;;;;;;;;6205782;23;20446;-73
2023/07/18 21:18:25;;;;;;;4.73;1.83;;;;;;;;;;6193221;23;20475;-73
2023/07/18 21:20:57;;;;;;;8.43;3.60;;;;;;;;;;6225204;23;20418;-74
2023/07/18 21:23:28;;;;;;;6.47;2.57;;;;;;;;;;6223223;23;20490;-74
2023/07/18 21:26:00;;;;;;;5.90;2.53;;;;;;;;;;6217520;23;20508;-75
2023/07/18 21:28:39;;;;;;;5.43;2.57;;;;;;;;;;6217177;23;20693;-74
2023/07/18 21:31:24;;;;;;;6.23;2.67;;;;;;;;;;6220029;23;20457;-74
2023/07/18 21:34:03;;;;;;;6.07;1.90;;;;;;;;;;6221353;23;20458;-74
2023/07/18 21:39:35;;;;;;;5.30;1.83;;;;;;;;;;6216521;23;20992;-74
2023/07/18 21:42:05;;;;;;;4.43;1.93;;;;;;;;;;6218816;23;20445;-75
2023/07/18 21:44:36;;;;;;;6.20;1.90;;;;;;;;;;6215477;23;20885;-74
2023/07/18 21:47:40;;;;;;;4.07;1.83;;;;;;;;;;6219747;23;20653;-73
2023/07/18 21:50:39;;;;;;;4.27;2.03;;;;;;;;;;6216547;23;20826;-74
2023/07/18 21:53:19;;;;;;;3.60;1.40;;;;;;;;;;6221504;23;20531;-74
2023/07/18 21:55:51;;;;;;;4.67;1.70;;;;;;;;;;6219303;23;20475;-73
2023/07/18 22:07:34;;;;;;;4.63;1.97;;;;;;;;;;6217734;23;20406;-74
2023/07/18 22:10:33;;;;;;;;;;;;;;;;;;;;;
2023/07/18 22:13:02;;;;;;;8.20;2.87;;;;;;;;;;6222104;23;20426;-75
2023/07/18 22:15:52;;;;;;;4.57;1.77;;;;;;;;;;6223150;23;20405;-74
2023/07/18 22:18:34;;;;;;;4.00;1.90;;;;;;;;;;6218055;23;20659;-74
2023/07/18 22:21:09;;;;;;;5.30;3.27;;;;;;;;;;6221881;23;20427;-74
2023/07/18 22:24:15;;;;;;;9.17;2.33;;;;;;;;;;6223541;23;20487;-73
2023/07/18 22:30:10;;;;;;;5.10;1.93;;;;;;;;;;6222985;23;20401;-74
2023/07/18 22:36:11;;;;;;;6.30;1.83;;;;;;;;;;6187577;23;20835;-74
2023/07/18 22:39:14;;;;;;;4.60;2.77;;;;;;;;;;6188858;23;20422;-74
2023/07/18 22:48:00;;;;;;;8.27;1.90;;;;;;;;;;6088089;23;20404;-74
2023/07/18 22:50:42;;;;;;;3.73;1.33;;;;;;;;;;6191137;23;20442;-74
2023/07/18 22:53:22;;;;;;;3.03;1.50;;;;;;;;;;6188067;23;20402;-74
2023/07/18 22:55:51;;;;;;;4.03;1.73;;;;;;;;;;6188680;23;20395;-74
2023/07/18 22:58:24;;;;;;;3.70;1.90;;;;;;;;;;6189585;23;20494;-75
2023/07/18 23:00:55;;;;;;;4.33;2.00;;;;;;;;;;6196527;23;20411;-74
2023/07/18 23:03:24;;;;;;;4.40;1.73;;;;;;;;;;6200261;23;20815;-75
2023/07/18 23:06:15;;;;;;;4.20;1.60;;;;;;;;;;6219192;23;21052;-74
2023/07/18 23:08:44;;;;;;;6.60;2.17;;;;;;;;;;6222371;23;20410;-75
2023/07/18 23:11:15;;;;;;;4.80;2.40;;;;;;;;;;6225887;23;20413;-74
2023/07/18 23:13:45;;;;;;;4.77;1.70;;;;;;;;;;6225507;23;20876;-75
2023/07/18 23:16:15;;;;;;;5.90;2.00;;;;;;;;;;6215733;23;20796;-73
2023/07/18 23:18:46;;;;;;;4.17;1.80;;;;;;;;;;6220833;23;20505;-74
2023/07/18 23:21:21;;;;;;;4.80;1.80;;;;;;;;;;6226280;23;20394;-75
2023/07/18 23:23:54;;;;;;;5.50;1.93;;;;;;;;;;6215149;23;20421;-75
2023/07/18 23:26:36;;;;;;;5.50;2.10;;;;;;;;;;6227989;23;20449;-76
2023/07/18 23:29:05;;;;;;;4.80;1.90;;;;;;;;;;6225083;23;20418;-74
2023/07/18 23:31:33;;;;;;;3.40;1.93;;;;;;;;;;6223886;23;20852;-75
2023/07/18 23:34:26;;;;;;;6.83;1.80;;;;;;;;;;6224726;23;20417;-74
2023/07/18 23:37:01;;;;;;;7.50;1.90;;;;;;;;;;6219653;23;20457;-74
2023/07/18 23:39:29;;;;;;;4.30;2.50;;;;;;;;;;6222781;23;20472;-74
2023/07/18 23:41:57;;;;;;;3.77;1.70;;;;;;;;;;6218072;23;20654;-81
2023/07/18 23:44:24;;;;;;;4.57;1.70;;;;;;;;;;6231103;23;20416;-80
2023/07/18 23:46:52;;;;;;;5.87;1.60;;;;;;;;;;6233617;23;20469;-79
2023/07/18 23:49:21;;;;;;;3.60;1.53;;;;;;;;;;6228187;23;20437;-81
2023/07/18 23:51:48;;;;;;;4.27;1.87;;;;;;;;;;6229954;23;20458;-80
2023/07/18 23:54:17;;;;;;;5.00;1.70;;;;;;;;;;6233622;23;20425;-80
2023/07/18 23:56:44;;;;;;;3.43;1.20;;;;;;;;;;6236436;23;20422;-80
2023/07/18 23:59:15;;;;;;;4.70;1.50;;;;;;;;;;6232415;23;20414;-80
